Terminal Aerodrome Forecast
Issued by NWS Binghamton, NY

Home | Current Version | Previous Version | Text Only | Print | Product List | Glossary On
Versions: 1 2 3 4 5 6 7 8 9 10 11 12 13 14 15 16 17 18 19
976
FTUS41 KBGM 231138
TAFBGM
TAF
KBGM 231138Z 2312/2412 29008KT P6SM SCT040 SCT080
     FM231500 30010G20KT P6SM BKN040
     FM232200 31005KT P6SM SCT120=

USA.gov is the U.S. government's official web portal to all federal, state and local government web resources and services.